createdAt,value
2023-03-16T00:01:07.350Z,94023.38
2023-03-16T00:03:38.555Z,94036.25
2023-03-16T00:06:11.585Z,94033.03
2023-03-16T00:08:40.762Z,94049.22
2023-03-16T00:11:09.693Z,94043.59
2023-03-16T00:13:38.670Z,94045.06
2023-03-16T00:16:08.937Z,94045.03
2023-03-16T00:18:40.279Z,94050.22
2023-03-16T00:21:09.394Z,94054.44
2023-03-16T00:23:38.637Z,94054.28
2023-03-16T00:26:10.304Z,94063.28
2023-03-16T00:28:39.179Z,94057.06
2023-03-16T00:31:12.539Z,94062.81
2023-03-16T00:33:44.292Z,94053.09
2023-03-16T00:36:14.651Z,94061.69
2023-03-16T00:38:45.509Z,94073.44
2023-03-16T00:41:16.551Z,94074.44
2023-03-16T00:43:45.818Z,94069.41
2023-03-16T00:46:16.715Z,94061.19
2023-03-16T00:48:49.826Z,94060.41
2023-03-16T00:51:19.219Z,94059.81
2023-03-16T00:53:48.733Z,94056.66
2023-03-16T00:56:18.664Z,94060.53
2023-03-16T00:58:48.134Z,94055.03
2023-03-16T01:01:19.272Z,94056.66
2023-03-16T01:03:49.820Z,94054.66
2023-03-16T01:06:20.894Z,94062.50
2023-03-16T01:08:50.575Z,94052.44
2023-03-16T01:11:21.132Z,94061.09
2023-03-16T01:13:54.577Z,94070.75
2023-03-16T01:16:24.705Z,94064.97
2023-03-16T01:18:57.886Z,94073.34
2023-03-16T01:21:27.527Z,94073.06
2023-03-16T01:23:56.725Z,94072.59
2023-03-16T01:26:26.595Z,94071.19
2023-03-16T01:28:56.069Z,94068.13
2023-03-16T01:31:25.831Z,94076.16
2023-03-16T01:33:56.611Z,94076.75
2023-03-16T01:36:30.039Z,94088.03
2023-03-16T01:39:05.342Z,94091.84
2023-03-16T01:41:42.984Z,94086.41
2023-03-16T01:44:15.271Z,94082.78
2023-03-16T01:46:44.651Z,94097.53
2023-03-16T01:49:20.556Z,94093.09
2023-03-16T01:51:54.472Z,94107.53
2023-03-16T01:54:30.668Z,94101.91
2023-03-16T01:57:08.411Z,94098.53
2023-03-16T01:59:41.560Z,94110.97
2023-03-16T02:02:11.142Z,94102.56
2023-03-16T02:04:52.325Z,94109.25
2023-03-16T02:07:25.875Z,94112.63
2023-03-16T02:09:59.208Z,94115.88
2023-03-16T02:12:29.541Z,94120.72
2023-03-16T02:15:00.716Z,94114.06
2023-03-16T02:17:51.358Z,94110.06
2023-03-16T02:20:35.506Z,94122.75
2023-03-16T02:23:07.112Z,94128.59
2023-03-16T02:25:45.300Z,94124.38
2023-03-16T02:28:21.841Z,94128.38
2023-03-16T02:30:53.251Z,94126.94
2023-03-16T02:33:24.385Z,94132.78
2023-03-16T02:35:53.510Z,94140.25
2023-03-16T02:38:25.323Z,94148.88
2023-03-16T02:41:01.299Z,94149.28
2023-03-16T02:43:35.537Z,94146.88
2023-03-16T02:46:22.147Z,94139.84
2023-03-16T02:48:56.342Z,94144.88
2023-03-16T02:51:25.331Z,94144.06
2023-03-16T02:53:56.868Z,94148.06
2023-03-16T02:56:27.786Z,94145.88
2023-03-16T02:58:58.224Z,94153.50
2023-03-16T03:01:32.087Z,94152.09
2023-03-16T03:04:01.457Z,94154.13
2023-03-16T03:06:31.221Z,94144.72
2023-03-16T03:09:02.254Z,94152.94
2023-03-16T03:11:32.424Z,94161.19
2023-03-16T03:14:02.029Z,94159.13
2023-03-16T03:16:33.014Z,94151.69
2023-03-16T03:19:03.309Z,94156.75
2023-03-16T03:21:36.996Z,94158.97
2023-03-16T03:24:06.752Z,94165.22
2023-03-16T03:26:38.145Z,94174.22
2023-03-16T03:29:11.248Z,94171.03
2023-03-16T03:31:42.577Z,94173.47
2023-03-16T03:34:11.963Z,94177.28
2023-03-16T03:36:41.717Z,94186.66
2023-03-16T03:39:10.984Z,94181.91
2023-03-16T03:41:40.987Z,94190.31
2023-03-16T03:44:11.611Z,94194.72
2023-03-16T03:46:42.472Z,94200.78
2023-03-16T03:49:12.241Z,94188.50
2023-03-16T03:51:41.505Z,94195.53
2023-03-16T03:54:15.792Z,94197.56
2023-03-16T03:56:55.513Z,94197.72
2023-03-16T03:59:25.556Z,94196.34
2023-03-16T04:02:22.496Z,94198.75
2023-03-16T04:04:54.983Z,94202.97
2023-03-16T04:07:23.948Z,94213.81
2023-03-16T04:09:56.699Z,94205.16
2023-03-16T04:12:34.517Z,94215.81
2023-03-16T04:15:04.457Z,94207.22
2023-03-16T04:17:40.489Z,94227.31
2023-03-16T04:20:15.234Z,94225.50
2023-03-16T04:22:47.454Z,94223.09
2023-03-16T04:25:19.373Z,94232.16
2023-03-16T04:27:52.298Z,94225.50
2023-03-16T04:30:24.336Z,94234.16
2023-03-16T04:32:59.124Z,94234.56
2023-03-16T04:35:28.308Z,94244.00
2023-03-16T04:37:59.885Z,94247.19
2023-03-16T04:40:39.434Z,94245.19
2023-03-16T04:43:17.325Z,94245.19
2023-03-16T04:45:47.201Z,94248.81
2023-03-16T04:48:17.740Z,94250.00
2023-03-16T04:50:47.210Z,94249.81
2023-03-16T04:53:17.704Z,94251.22
2023-03-16T04:55:50.154Z,94258.88
2023-03-16T04:58:19.925Z,94256.84
2023-03-16T05:00:53.814Z,94261.25
2023-03-16T05:03:32.689Z,94266.88
2023-03-16T05:06:02.204Z,94274.75
2023-03-16T05:08:34.051Z,94278.94
2023-03-16T05:11:03.135Z,94279.34
2023-03-16T05:13:36.380Z,94284.38
2023-03-16T05:16:07.414Z,94297.44
2023-03-16T05:18:42.438Z,94282.56
2023-03-16T05:21:12.912Z,94278.13
2023-03-16T05:23:57.369Z,94278.34
2023-03-16T05:26:26.559Z,94280.56
2023-03-16T05:28:56.739Z,94283.97
2023-03-16T05:31:28.060Z,94283.56
2023-03-16T05:34:02.606Z,94292.38
2023-03-16T05:36:32.157Z,94293.00
2023-03-16T05:39:08.724Z,94308.84
2023-03-16T05:41:44.060Z,94308.69
2023-03-16T05:44:15.553Z,94312.06
2023-03-16T05:47:09.085Z,94314.28
2023-03-16T05:49:44.609Z,94326.53
2023-03-16T05:52:25.553Z,94326.16
2023-03-16T05:54:57.349Z,94333.19
2023-03-16T05:57:27.019Z,94331.56
2023-03-16T05:59:56.734Z,94329.75
2023-03-16T06:02:25.807Z,94333.22
2023-03-16T06:04:56.651Z,94327.97
2023-03-16T06:07:29.077Z,94338.44
2023-03-16T06:09:58.621Z,94340.22
2023-03-16T06:12:28.483Z,94346.69
2023-03-16T06:14:57.612Z,94353.72
2023-03-16T06:17:26.640Z,94348.28
2023-03-16T06:19:57.050Z,94350.50
2023-03-16T06:22:26.444Z,94358.97
2023-03-16T06:24:55.646Z,94357.75
2023-03-16T06:27:26.694Z,94367.78
2023-03-16T06:30:14.768Z,94367.59
2023-03-16T06:32:45.585Z,94372.44
2023-03-16T06:35:16.522Z,94383.25
2023-03-16T06:38:01.311Z,94378.84
2023-03-16T06:40:42.805Z,94379.06
2023-03-16T06:43:12.251Z,94376.25
2023-03-16T06:45:44.415Z,94387.53
2023-03-16T06:48:13.962Z,94384.69
2023-03-16T06:50:47.287Z,94388.72
2023-03-16T06:53:23.533Z,94403.00
2023-03-16T06:55:53.617Z,94405.59
2023-03-16T06:58:22.945Z,94406.63
2023-03-16T07:00:54.193Z,94415.03
2023-03-16T07:03:23.278Z,94415.47
2023-03-16T07:05:59.669Z,94422.91
2023-03-16T07:08:29.316Z,94427.75
2023-03-16T07:10:58.590Z,94424.50
2023-03-16T07:13:27.642Z,94423.31
2023-03-16T07:15:57.047Z,94431.53
2023-03-16T07:18:27.706Z,94433.38
2023-03-16T07:20:57.733Z,94431.56
2023-03-16T07:23:30.245Z,94427.75
2023-03-16T07:26:08.413Z,94440.41
2023-03-16T07:28:41.551Z,94434.78
2023-03-16T07:31:11.499Z,94439.00
2023-03-16T07:33:43.473Z,94441.78
2023-03-16T07:36:16.633Z,94449.66
2023-03-16T07:38:53.647Z,94452.06
2023-03-16T07:41:23.750Z,94450.44
2023-03-16T07:43:53.620Z,94446.81
2023-03-16T07:46:26.669Z,94451.25
2023-03-16T07:48:56.373Z,94454.47
2023-03-16T07:51:25.533Z,94453.03
2023-03-16T07:53:57.068Z,94457.84
2023-03-16T07:56:47.419Z,94461.06
2023-03-16T07:59:26.155Z,94454.81
2023-03-16T08:01:55.315Z,94467.72
2023-03-16T08:04:24.420Z,94477.97
2023-03-16T08:07:00.625Z,94476.16
2023-03-16T08:09:39.420Z,94471.38
2023-03-16T08:12:12.245Z,94477.19
2023-03-16T08:14:43.045Z,94476.41
2023-03-16T08:17:18.216Z,94474.19
2023-03-16T08:19:49.739Z,94480.84
2023-03-16T08:22:19.758Z,94469.16
2023-03-16T08:24:50.997Z,94475.81
2023-03-16T08:27:22.361Z,94481.81
2023-03-16T08:29:57.224Z,94479.59
2023-03-16T08:32:29.893Z,94478.16
2023-03-16T08:35:01.329Z,94488.06
2023-03-16T08:37:32.072Z,94487.22
2023-03-16T08:40:02.605Z,94490.25
2023-03-16T08:42:31.733Z,94489.81
2023-03-16T08:45:13.760Z,94496.88
2023-03-16T08:47:45.570Z,94495.72
2023-03-16T08:50:17.119Z,94489.84
2023-03-16T08:52:46.800Z,94495.47
2023-03-16T08:55:17.011Z,94496.47
2023-03-16T08:57:46.631Z,94494.78
2023-03-16T09:00:18.223Z,94494.78
2023-03-16T09:02:47.365Z,94499.78
2023-03-16T09:05:18.517Z,94497.63
2023-03-16T09:07:49.001Z,94498.00
2023-03-16T09:10:20.138Z,94511.50
2023-03-16T09:12:49.801Z,94502.84
2023-03-16T09:15:19.854Z,94512.88
2023-03-16T09:17:49.178Z,94512.84
2023-03-16T09:20:22.817Z,94507.63
2023-03-16T09:23:04.598Z,94525.19
2023-03-16T09:25:35.646Z,94515.25
2023-03-16T09:28:05.220Z,94526.56
2023-03-16T09:30:34.716Z,94515.41
2023-03-16T09:33:04.459Z,94519.19
2023-03-16T09:35:35.081Z,94522.16
2023-03-16T09:38:06.647Z,94530.47
2023-03-16T09:40:39.822Z,94532.25
2023-03-16T09:43:22.755Z,94530.03
2023-03-16T09:46:01.167Z,94523.84
2023-03-16T09:48:36.538Z,94525.44
2023-03-16T09:51:08.880Z,94529.88
2023-03-16T09:53:40.711Z,94536.19
2023-03-16T09:56:18.554Z,94532.66
2023-03-16T09:58:47.606Z,94532.00
2023-03-16T10:01:25.596Z,94548.19
2023-03-16T10:04:07.810Z,94544.38
2023-03-16T10:06:44.493Z,94536.31
2023-03-16T10:09:27.399Z,94546.09
2023-03-16T10:12:01.050Z,94551.47
2023-03-16T10:14:35.008Z,94539.13
2023-03-16T10:17:13.265Z,94539.41
2023-03-16T10:19:47.453Z,94540.63
2023-03-16T10:22:22.768Z,94535.88
2023-03-16T10:25:02.885Z,94544.06
2023-03-16T10:27:36.869Z,94548.09
2023-03-16T10:30:19.023Z,94545.94
2023-03-16T10:32:49.776Z,94546.84
2023-03-16T10:35:43.205Z,94542.06
2023-03-16T10:38:29.766Z,94548.81
2023-03-16T10:40:59.294Z,94556.03
2023-03-16T10:43:33.745Z,94544.69
2023-03-16T10:46:03.887Z,94559.03
2023-03-16T10:48:35.823Z,94563.28
2023-03-16T10:51:12.206Z,94548.06
2023-03-16T10:53:44.481Z,94558.03
2023-03-16T10:56:20.230Z,94555.75
2023-03-16T10:58:50.954Z,94564.63
2023-03-16T11:01:23.087Z,94558.44
2023-03-16T11:03:55.454Z,94558.72
2023-03-16T11:06:30.855Z,94548.16
2023-03-16T11:09:08.953Z,94548.16
2023-03-16T11:11:38.453Z,94555.47
2023-03-16T11:14:15.635Z,94549.09
2023-03-16T11:16:51.425Z,94549.81
2023-03-16T11:19:26.308Z,94558.78
2023-03-16T11:22:00.297Z,94557.75
2023-03-16T11:24:36.154Z,94544.38
2023-03-16T11:27:09.167Z,94553.91
2023-03-16T11:29:58.957Z,94550.91
2023-03-16T11:32:33.556Z,94553.53
2023-03-16T11:35:04.853Z,94547.13
2023-03-16T11:37:50.293Z,94551.31
2023-03-16T11:40:36.749Z,94566.59
2023-03-16T11:43:25.344Z,94555.56
2023-03-16T11:46:10.749Z,94562.25
2023-03-16T11:48:44.459Z,94562.25
2023-03-16T11:51:26.100Z,94544.25
2023-03-16T11:54:08.648Z,94559.78
2023-03-16T11:56:43.169Z,94556.34
2023-03-16T11:59:42.369Z,94564.66
2023-03-16T12:02:41.418Z,94571.88
2023-03-16T12:05:30.706Z,94575.50
2023-03-16T12:08:15.410Z,94569.91
2023-03-16T12:10:50.511Z,94575.16
2023-03-16T12:13:33.334Z,94573.75
2023-03-16T12:16:08.001Z,94579.16
2023-03-16T12:18:47.034Z,94573.41
2023-03-16T12:21:20.850Z,94575.75
2023-03-16T12:23:56.142Z,94575.97
2023-03-16T12:26:30.299Z,94579.59
2023-03-16T12:29:01.511Z,94576.59
2023-03-16T12:31:44.433Z,94583.69
2023-03-16T12:34:24.621Z,94571.59
2023-03-16T12:37:24.417Z,94575.22
2023-03-16T12:40:10.604Z,94581.25
2023-03-16T12:43:19.258Z,94581.22
2023-03-16T12:45:59.704Z,94579.63
2023-03-16T12:48:35.816Z,94593.31
2023-03-16T12:51:07.558Z,94585.06
2023-03-16T12:53:44.872Z,94587.09
2023-03-16T12:56:16.699Z,94589.53
2023-03-16T12:58:48.722Z,94577.44
2023-03-16T13:01:21.082Z,94588.31
2023-03-16T13:03:52.266Z,94573.03
2023-03-16T13:06:25.413Z,94584.09
2023-03-16T13:08:58.039Z,94581.88
2023-03-16T13:11:28.049Z,94581.47
2023-03-16T13:14:11.222Z,94589.53
2023-03-16T13:16:41.597Z,94594.19
2023-03-16T13:19:27.713Z,94603.03
2023-03-16T13:22:19.545Z,94608.06
2023-03-16T13:24:54.308Z,94600.78
2023-03-16T13:27:27.670Z,94604.00
2023-03-16T13:29:59.409Z,94609.88
2023-03-16T13:32:33.180Z,94615.94
2023-03-16T13:35:03.786Z,94620.19
2023-03-16T13:37:34.363Z,94616.56
2023-03-16T13:40:05.830Z,94617.56
2023-03-16T13:42:35.567Z,94620.19
2023-03-16T13:45:14.621Z,94621.00
2023-03-16T13:47:44.609Z,94622.41
2023-03-16T13:50:15.569Z,94622.63
2023-03-16T13:52:55.478Z,94614.56
2023-03-16T13:55:31.292Z,94630.66
2023-03-16T13:58:02.098Z,94633.91
2023-03-16T14:00:35.853Z,94624.22
2023-03-16T14:03:16.407Z,94639.94
2023-03-16T14:05:47.185Z,94641.16
2023-03-16T14:08:23.560Z,94637.53
2023-03-16T14:10:59.869Z,94631.91
2023-03-16T14:13:38.502Z,94643.97
2023-03-16T14:16:13.977Z,94641.56
2023-03-16T14:18:45.564Z,94643.59
2023-03-16T14:21:18.434Z,94646.78
2023-03-16T14:23:51.564Z,94644.97
2023-03-16T14:26:24.731Z,94638.50
2023-03-16T14:28:58.664Z,94642.31
2023-03-16T14:31:37.083Z,94649.78
2023-03-16T14:34:09.070Z,94649.22
2023-03-16T14:36:40.174Z,94653.63
2023-03-16T14:39:14.820Z,94649.63
2023-03-16T14:41:46.228Z,94662.69
2023-03-16T14:44:22.990Z,94657.88
2023-03-16T14:46:54.583Z,94658.66
2023-03-16T14:49:28.729Z,94665.72
2023-03-16T14:52:03.984Z,94665.53
2023-03-16T14:54:35.275Z,94663.09
2023-03-16T14:57:07.563Z,94672.38
2023-03-16T14:59:36.741Z,94667.75
2023-03-16T15:02:17.342Z,94673.38
2023-03-16T15:04:47.460Z,94671.38
2023-03-16T15:07:25.667Z,94672.97
2023-03-16T15:10:02.421Z,94677.81
2023-03-16T15:12:31.779Z,94680.22
2023-03-16T15:15:19.055Z,94687.09
2023-03-16T15:17:48.685Z,94682.66
2023-03-16T15:20:20.872Z,94685.84
2023-03-16T15:22:53.178Z,94692.50
2023-03-16T15:25:29.958Z,94696.09
2023-03-16T15:27:59.154Z,94694.09
2023-03-16T15:30:31.052Z,94700.09
2023-03-16T15:33:00.330Z,94703.16
2023-03-16T15:35:29.736Z,94702.50
2023-03-16T15:37:59.601Z,94705.28
2023-03-16T15:40:32.038Z,94707.28
2023-03-16T15:43:02.070Z,94713.34
2023-03-16T15:45:31.401Z,94714.75
2023-03-16T15:48:00.374Z,94715.16
2023-03-16T15:50:29.828Z,94715.81
2023-03-16T15:53:05.355Z,94715.16
2023-03-16T15:55:39.938Z,94719.56
2023-03-16T15:58:19.082Z,94721.19
2023-03-16T16:00:49.747Z,94726.78
2023-03-16T16:03:18.740Z,94737.06
2023-03-16T16:05:47.918Z,94743.72
2023-03-16T16:08:17.450Z,94739.06
2023-03-16T16:10:50.946Z,94746.72
2023-03-16T16:13:26.727Z,94746.72
2023-03-16T16:15:58.262Z,94748.34
2023-03-16T16:18:30.668Z,94749.31
2023-03-16T16:21:01.650Z,94756.75
2023-03-16T16:23:31.569Z,94757.09
2023-03-16T16:26:04.837Z,94753.75
2023-03-16T16:28:34.845Z,94755.16
2023-03-16T16:31:04.162Z,94762.19
2023-03-16T16:33:34.605Z,94759.81
2023-03-16T16:36:05.513Z,94768.47
2023-03-16T16:38:35.143Z,94763.47
2023-03-16T16:41:09.910Z,94766.53
2023-03-16T16:43:41.953Z,94767.28
2023-03-16T16:46:16.761Z,94767.28
2023-03-16T16:48:48.176Z,94772.34
2023-03-16T16:51:20.274Z,94779.94
2023-03-16T16:53:50.070Z,94783.63
2023-03-16T16:56:26.895Z,94787.88
2023-03-16T16:58:57.274Z,94790.22
2023-03-16T17:01:29.925Z,94784.41
2023-03-16T17:03:59.118Z,94785.81
2023-03-16T17:06:29.105Z,94783.38
2023-03-16T17:08:58.871Z,94786.00
2023-03-16T17:11:31.212Z,94800.03
2023-03-16T17:14:02.506Z,94792.19
2023-03-16T17:16:33.097Z,94794.00
2023-03-16T17:19:02.666Z,94794.38
2023-03-16T17:21:33.556Z,94799.84
2023-03-16T17:24:02.959Z,94795.78
2023-03-16T17:26:35.174Z,94800.16
2023-03-16T17:29:07.901Z,94806.25
2023-03-16T17:31:39.768Z,94812.31
2023-03-16T17:34:18.298Z,94817.91
2023-03-16T17:36:47.908Z,94813.66
2023-03-16T17:39:21.211Z,94812.84
2023-03-16T17:41:56.166Z,94816.47
2023-03-16T17:44:27.064Z,94819.06
2023-03-16T17:46:56.804Z,94818.09
2023-03-16T17:49:28.708Z,94831.78
2023-03-16T17:51:57.972Z,94834.41
2023-03-16T17:54:27.332Z,94840.09
2023-03-16T17:56:57.947Z,94847.66
2023-03-16T17:59:27.644Z,94843.06
2023-03-16T18:01:57.238Z,94844.91
2023-03-16T18:04:27.956Z,94849.81
2023-03-16T18:06:57.250Z,94850.13
2023-03-16T18:09:28.921Z,94851.38
2023-03-16T18:11:59.773Z,94854.19
2023-03-16T18:14:36.501Z,94844.81
2023-03-16T18:17:17.123Z,94848.94
2023-03-16T18:19:47.292Z,94849.75
2023-03-16T18:22:19.678Z,94857.78
2023-03-16T18:24:50.333Z,94859.50
2023-03-16T18:27:21.303Z,94861.00
2023-03-16T18:29:51.337Z,94859.22
2023-03-16T18:32:26.130Z,94858.78
2023-03-16T18:34:55.789Z,94867.47
2023-03-16T18:37:27.649Z,94856.31
2023-03-16T18:39:58.072Z,94857.44
2023-03-16T18:42:29.059Z,94855.09
2023-03-16T18:44:59.139Z,94851.72
2023-03-16T18:47:31.874Z,94852.16
2023-03-16T18:50:02.423Z,94855.97
2023-03-16T18:52:35.840Z,94857.44
2023-03-16T18:55:05.585Z,94864.19
2023-03-16T18:57:36.060Z,94861.38
2023-03-16T19:00:06.453Z,94868.41
2023-03-16T19:02:39.052Z,94867.78
2023-03-16T19:05:14.468Z,94876.53
2023-03-16T19:07:47.252Z,94877.53
2023-03-16T19:10:24.157Z,94869.91
2023-03-16T19:12:55.660Z,94873.94
2023-03-16T19:15:28.233Z,94868.28
2023-03-16T19:17:58.286Z,94879.78
2023-03-16T19:20:29.893Z,94882.78
2023-03-16T19:23:04.217Z,94874.34
2023-03-16T19:25:38.438Z,94878.97
2023-03-16T19:28:16.095Z,94881.66
2023-03-16T19:30:48.168Z,94884.69
2023-03-16T19:33:20.106Z,94889.78
2023-03-16T19:35:52.124Z,94889.16
2023-03-16T19:38:22.029Z,94887.53
2023-03-16T19:40:56.840Z,94890.53
2023-03-16T19:43:30.467Z,94891.94
2023-03-16T19:45:59.796Z,94887.81
2023-03-16T19:48:34.399Z,94889.84
2023-03-16T19:51:04.656Z,94887.03
2023-03-16T19:53:33.719Z,94886.84
2023-03-16T19:56:02.854Z,94890.25
2023-03-16T19:58:38.720Z,94889.72
2023-03-16T20:01:14.770Z,94892.38
2023-03-16T20:03:43.892Z,94890.72
2023-03-16T20:06:14.909Z,94890.75
2023-03-16T20:08:44.412Z,94894.38
2023-03-16T20:11:19.015Z,94890.28
2023-03-16T20:13:50.545Z,94894.97
2023-03-16T20:16:26.962Z,94898.78
2023-03-16T20:18:58.178Z,94886.69
2023-03-16T20:21:27.699Z,94896.31
2023-03-16T20:24:00.607Z,94900.22
2023-03-16T20:26:33.691Z,94902.19
2023-03-16T20:29:04.665Z,94905.19
2023-03-16T20:31:36.999Z,94904.06
2023-03-16T20:34:20.109Z,94913.84
2023-03-16T20:36:50.340Z,94909.38
2023-03-16T20:39:19.370Z,94905.91
2023-03-16T20:41:48.565Z,94913.22
2023-03-16T20:44:21.382Z,94914.44
2023-03-16T20:46:51.084Z,94914.38
2023-03-16T20:49:34.999Z,94916.78
2023-03-16T20:52:04.786Z,94909.94
2023-03-16T20:54:33.843Z,94917.03
2023-03-16T20:57:03.025Z,94914.16
2023-03-16T20:59:34.792Z,94917.41
2023-03-16T21:02:06.320Z,94923.44
2023-03-16T21:04:35.545Z,94920.13
2023-03-16T21:07:08.346Z,94923.38
2023-03-16T21:09:37.402Z,94927.31
2023-03-16T21:12:07.622Z,94924.34
2023-03-16T21:14:38.672Z,94931.59
2023-03-16T21:17:11.104Z,94935.63
2023-03-16T21:19:40.762Z,94940.34
2023-03-16T21:22:24.173Z,94940.97
2023-03-16T21:24:53.487Z,94935.59
2023-03-16T21:27:27.302Z,94937.06
2023-03-16T21:30:00.912Z,94948.72
2023-03-16T21:32:31.809Z,94943.56
2023-03-16T21:35:02.138Z,94936.81
2023-03-16T21:37:31.463Z,94937.28
2023-03-16T21:40:01.480Z,94942.16
2023-03-16T21:42:31.722Z,94943.41
2023-03-16T21:45:04.091Z,94949.44
2023-03-16T21:47:39.356Z,94953.06
2023-03-16T21:50:14.801Z,94952.06
2023-03-16T21:52:45.835Z,94944.72
2023-03-16T21:55:32.659Z,94945.94
2023-03-16T21:58:02.985Z,94949.56
2023-03-16T22:00:33.460Z,94941.31
2023-03-16T22:03:03.659Z,94948.78
2023-03-16T22:05:37.953Z,94946.47
2023-03-16T22:08:16.451Z,94947.59
2023-03-16T22:10:45.510Z,94946.66
2023-03-16T22:13:14.631Z,94943.22
2023-03-16T22:15:46.895Z,94942.22
2023-03-16T22:18:28.725Z,94947.75
2023-03-16T22:20:59.532Z,94947.25
2023-03-16T22:23:35.283Z,94935.25
2023-03-16T22:26:06.380Z,94946.53
2023-03-16T22:28:37.041Z,94942.72
2023-03-16T22:31:08.695Z,94948.28
2023-03-16T22:33:41.318Z,94952.50
2023-03-16T22:36:13.749Z,94953.47
2023-03-16T22:38:44.321Z,94956.00
2023-03-16T22:41:16.416Z,94954.50
2023-03-16T22:43:47.151Z,94959.72
2023-03-16T22:46:24.345Z,94968.34
2023-03-16T22:48:55.673Z,94971.16
2023-03-16T22:51:30.087Z,94964.66
2023-03-16T22:54:03.687Z,94976.06
2023-03-16T22:56:33.616Z,94968.16
2023-03-16T22:59:06.312Z,94974.22
2023-03-16T23:01:40.289Z,94978.88
2023-03-16T23:04:15.731Z,94984.72
2023-03-16T23:06:45.861Z,94980.94
2023-03-16T23:09:15.983Z,94986.78
2023-03-16T23:11:47.623Z,94992.16
2023-03-16T23:14:18.444Z,94992.84
2023-03-16T23:16:50.818Z,94990.63
2023-03-16T23:19:25.439Z,94993.56
2023-03-16T23:21:57.900Z,95001.22
2023-03-16T23:24:27.682Z,95001.72
2023-03-16T23:26:57.271Z,95003.91
2023-03-16T23:29:27.539Z,95002.69
2023-03-16T23:31:58.992Z,95005.56
2023-03-16T23:34:28.259Z,95013.28
2023-03-16T23:36:57.544Z,95023.91
2023-03-16T23:39:27.528Z,95021.13
2023-03-16T23:41:57.554Z,95025.41
2023-03-16T23:44:30.035Z,95023.94
2023-03-16T23:47:01.607Z,95027.13
2023-03-16T23:49:33.150Z,95027.75
2023-03-16T23:52:03.842Z,95035.19
2023-03-16T23:54:34.315Z,95032.06
2023-03-16T23:57:04.270Z,95034.16
2023-03-16T23:59:33.472Z,95035.59
